createdAt,value
2023-05-15T00:00:19.806Z,29.52
2023-05-15T00:02:46.754Z,28.95
2023-05-15T00:05:14.147Z,30.20
2023-05-15T00:07:41.209Z,30.55
2023-05-15T00:10:08.882Z,30.77
2023-05-15T00:12:35.633Z,30.45
2023-05-15T00:15:02.424Z,30.73
2023-05-15T00:17:29.098Z,30.77
2023-05-15T00:19:57.736Z,31.33
2023-05-15T00:22:24.447Z,31.90
2023-05-15T00:24:51.001Z,31.17
2023-05-15T00:27:17.644Z,32.13
2023-05-15T00:29:44.257Z,32.33
2023-05-15T00:32:10.814Z,31.50
2023-05-15T00:34:37.395Z,32.13
2023-05-15T00:37:04.050Z,32.50
2023-05-15T00:39:30.593Z,33.05
2023-05-15T00:41:57.858Z,32.97
2023-05-15T00:44:26.849Z,33.58
2023-05-15T00:46:54.997Z,32.65
2023-05-15T00:49:22.586Z,34.35
2023-05-15T00:51:50.364Z,35.45
2023-05-15T00:54:17.075Z,35.13
2023-05-15T00:56:46.005Z,35.25
2023-05-15T00:59:13.686Z,35.05
2023-05-15T01:01:44.348Z,36.65
2023-05-15T01:04:11.854Z,36.55
2023-05-15T01:06:38.618Z,36.97
2023-05-15T01:09:06.732Z,38.05
2023-05-15T01:11:37.832Z,37.65
2023-05-15T01:14:05.816Z,38.97
2023-05-15T01:16:33.312Z,39.80
2023-05-15T01:19:00.155Z,39.45
2023-05-15T01:21:38.919Z,40.05
2023-05-15T01:24:20.730Z,40.65
2023-05-15T01:27:09.111Z,40.13
2023-05-15T01:29:38.716Z,40.80
2023-05-15T01:32:10.085Z,40.83
2023-05-15T01:34:48.617Z,42.70
2023-05-15T01:37:19.157Z,41.83
2023-05-15T01:39:54.073Z,41.97
2023-05-15T01:42:21.838Z,43.38
2023-05-15T01:44:55.842Z,43.45
2023-05-15T01:47:28.033Z,43.13
2023-05-15T01:49:57.125Z,43.40
2023-05-15T01:52:29.460Z,43.72
2023-05-15T01:54:57.404Z,44.00
2023-05-15T01:57:25.533Z,43.38
2023-05-15T01:59:53.231Z,46.03
2023-05-15T02:02:20.009Z,43.22
2023-05-15T02:04:47.655Z,45.13
2023-05-15T02:07:15.717Z,44.42
2023-05-15T02:09:43.238Z,47.20
2023-05-15T02:12:10.980Z,47.38
2023-05-15T02:14:41.109Z,49.90
2023-05-15T02:17:07.855Z,47.50
2023-05-15T02:19:34.790Z,49.20
2023-05-15T02:22:01.360Z,49.83
2023-05-15T02:24:27.903Z,50.15
2023-05-15T02:27:20.171Z,48.97
2023-05-15T02:30:14.611Z,49.92
2023-05-15T02:33:01.153Z,50.70
2023-05-15T02:35:33.442Z,51.60
2023-05-15T02:38:02.884Z,50.75
2023-05-15T02:40:31.633Z,53.08
2023-05-15T02:42:59.284Z,52.78
2023-05-15T02:45:26.527Z,53.05
2023-05-15T02:47:53.948Z,51.65
2023-05-15T02:50:20.944Z,51.63
2023-05-15T02:52:47.535Z,53.28
2023-05-15T02:55:14.124Z,54.42
2023-05-15T02:57:40.791Z,53.88
2023-05-15T03:00:11.794Z,53.53
2023-05-15T03:02:38.443Z,56.55
2023-05-15T03:05:06.551Z,56.38
2023-05-15T03:07:33.209Z,56.38
2023-05-15T03:09:59.764Z,56.70
2023-05-15T03:12:26.343Z,56.25
2023-05-15T03:14:52.997Z,56.83
2023-05-15T03:17:19.552Z,59.85
2023-05-15T03:19:46.304Z,58.75
2023-05-15T03:22:12.979Z,59.80
2023-05-15T03:24:39.526Z,58.53
2023-05-15T03:27:06.288Z,57.85
2023-05-15T03:29:32.907Z,58.53
2023-05-15T03:31:59.538Z,57.22
2023-05-15T03:34:26.089Z,58.67
2023-05-15T03:36:52.632Z,55.85
2023-05-15T03:39:19.228Z,55.90
2023-05-15T03:41:45.769Z,57.00
2023-05-15T03:44:12.371Z,55.33
2023-05-15T03:46:38.957Z,53.72
2023-05-15T03:49:05.601Z,51.97
2023-05-15T03:51:32.358Z,52.63
2023-05-15T03:53:58.988Z,52.65
2023-05-15T03:56:25.675Z,51.65
2023-05-15T03:58:52.240Z,53.08
2023-05-15T04:01:18.806Z,54.45
2023-05-15T04:03:45.424Z,53.60
2023-05-15T04:06:11.977Z,59.40
2023-05-15T04:08:39.795Z,55.65
2023-05-15T04:11:07.598Z,56.15
2023-05-15T04:13:34.138Z,60.78
2023-05-15T04:16:01.158Z,56.10
2023-05-15T04:18:27.893Z,54.80
2023-05-15T04:20:54.554Z,52.80
2023-05-15T04:23:21.120Z,51.75
2023-05-15T04:25:48.847Z,56.50
2023-05-15T04:28:16.118Z,53.78
2023-05-15T04:30:42.676Z,55.22
2023-05-15T04:33:09.429Z,54.92
2023-05-15T04:35:36.210Z,54.10
2023-05-15T04:38:03.317Z,56.20
2023-05-15T04:40:30.029Z,54.90
2023-05-15T04:42:56.906Z,52.08
2023-05-15T04:45:25.198Z,53.67
2023-05-15T04:47:51.966Z,55.03
2023-05-15T04:50:18.586Z,54.50
2023-05-15T04:52:45.710Z,54.35
2023-05-15T04:55:12.312Z,52.53
2023-05-15T04:57:39.012Z,52.65
2023-05-15T05:00:12.375Z,50.47
2023-05-15T05:05:07.687Z,47.75
2023-05-15T05:07:35.107Z,49.10
2023-05-15T05:10:02.622Z,48.33
2023-05-15T05:12:29.196Z,46.92
2023-05-15T05:14:56.819Z,41.42
2023-05-15T05:17:23.679Z,39.97
2023-05-15T05:19:50.291Z,40.13
2023-05-15T05:22:16.876Z,39.25
2023-05-15T05:24:43.441Z,39.33
2023-05-15T05:27:11.073Z,37.80
2023-05-15T05:29:37.753Z,34.42
2023-05-15T05:32:04.601Z,34.05
2023-05-15T05:34:31.142Z,34.08
2023-05-15T05:36:57.784Z,33.72
2023-05-15T05:39:24.384Z,35.75
2023-05-15T05:41:50.993Z,35.15
2023-05-15T05:44:17.630Z,34.95
2023-05-15T05:46:45.564Z,34.28
2023-05-15T05:49:12.256Z,33.05
2023-05-15T05:51:39.238Z,32.00
2023-05-15T05:54:05.949Z,32.40
2023-05-15T05:56:32.629Z,33.50
2023-05-15T05:59:01.823Z,32.60
2023-05-15T06:01:28.565Z,34.22
2023-05-15T06:03:55.972Z,31.42
2023-05-15T06:06:22.932Z,31.70
2023-05-15T06:08:49.510Z,30.25
2023-05-15T06:11:16.238Z,30.55
2023-05-15T06:13:43.551Z,30.17
2023-05-15T06:16:10.292Z,28.73
2023-05-15T06:18:36.891Z,28.15
2023-05-15T06:21:03.635Z,27.75
2023-05-15T06:23:30.282Z,26.42
2023-05-15T06:25:56.943Z,28.95
2023-05-15T06:28:23.629Z,27.27
2023-05-15T06:30:50.225Z,26.30
2023-05-15T06:33:16.885Z,26.10
2023-05-15T06:35:43.525Z,26.50
2023-05-15T06:38:10.349Z,25.27
2023-05-15T06:40:36.941Z,25.60
2023-05-15T06:43:03.863Z,25.45
2023-05-15T06:45:30.520Z,25.38
2023-05-15T06:47:59.210Z,25.23
2023-05-15T06:50:27.505Z,23.48
2023-05-15T06:52:54.840Z,22.38
2023-05-15T06:55:21.408Z,24.02
2023-05-15T06:57:47.922Z,23.10
2023-05-15T07:00:15.053Z,23.23
2023-05-15T07:02:41.750Z,23.33
2023-05-15T07:05:09.013Z,24.48
2023-05-15T07:07:35.773Z,22.67
2023-05-15T07:10:02.351Z,22.38
2023-05-15T07:12:28.951Z,22.80
2023-05-15T07:14:55.504Z,24.40
2023-05-15T07:17:22.147Z,24.40
2023-05-15T07:19:48.794Z,23.15
2023-05-15T07:22:15.520Z,23.23
2023-05-15T07:24:42.081Z,22.92
2023-05-15T07:27:08.699Z,22.08
2023-05-15T07:29:35.347Z,21.50
2023-05-15T07:32:01.958Z,21.25
2023-05-15T07:34:28.615Z,25.40
2023-05-15T07:36:55.351Z,25.45
2023-05-15T07:39:21.982Z,24.55
2023-05-15T07:41:49.182Z,22.10
2023-05-15T07:44:15.822Z,21.95
2023-05-15T07:46:42.851Z,21.73
2023-05-15T07:49:09.666Z,22.20
2023-05-15T07:51:36.251Z,22.70
2023-05-15T07:54:04.236Z,22.48
2023-05-15T07:56:31.047Z,21.95
2023-05-15T07:58:57.860Z,22.08
2023-05-15T08:01:24.536Z,21.95
2023-05-15T08:03:51.297Z,22.73
2023-05-15T08:06:17.988Z,21.30
2023-05-15T08:08:44.530Z,21.80
2023-05-15T08:11:11.124Z,21.42
2023-05-15T08:13:37.708Z,21.73
2023-05-15T08:16:04.699Z,21.95
2023-05-15T08:18:31.560Z,21.83
2023-05-15T08:20:58.148Z,22.52
2023-05-15T08:23:24.779Z,22.98
2023-05-15T08:25:51.367Z,22.77
2023-05-15T08:28:18.026Z,21.35
2023-05-15T08:30:44.588Z,24.33
2023-05-15T08:33:11.232Z,23.83
2023-05-15T08:35:37.972Z,24.27
2023-05-15T08:38:04.573Z,23.73
2023-05-15T08:40:38.961Z,23.35
2023-05-15T08:43:16.671Z,24.17
2023-05-15T08:45:43.973Z,24.48
2023-05-15T08:48:19.552Z,24.90
2023-05-15T08:50:46.882Z,23.85
2023-05-15T08:53:14.301Z,27.63
2023-05-15T08:55:42.274Z,27.55
2023-05-15T08:58:09.508Z,26.48
2023-05-15T09:00:36.256Z,28.45
2023-05-15T09:03:03.275Z,27.55
2023-05-15T09:05:30.467Z,29.20
2023-05-15T09:07:58.712Z,28.70
2023-05-15T09:10:25.546Z,27.65
2023-05-15T09:12:53.434Z,27.17
2023-05-15T09:15:23.181Z,26.95
2023-05-15T09:17:50.649Z,26.85
2023-05-15T09:20:35.533Z,26.88
2023-05-15T09:23:05.390Z,27.95
2023-05-15T09:25:38.230Z,25.67
2023-05-15T09:28:11.113Z,25.70
2023-05-15T09:30:38.721Z,25.25
2023-05-15T09:33:05.576Z,26.88
2023-05-15T09:35:32.885Z,25.67
2023-05-15T09:38:00.395Z,24.88
2023-05-15T09:40:31.519Z,26.15
2023-05-15T09:42:59.390Z,25.70
2023-05-15T09:45:30.488Z,25.48
2023-05-15T09:48:00.242Z,25.48
2023-05-15T09:50:36.860Z,25.27
2023-05-15T09:53:04.850Z,24.35
2023-05-15T09:55:36.336Z,24.58
2023-05-15T09:58:11.338Z,25.33
2023-05-15T10:00:48.423Z,25.38
2023-05-15T10:03:17.256Z,28.15
2023-05-15T10:05:44.461Z,29.17
2023-05-15T10:08:12.360Z,28.20
2023-05-15T10:10:39.157Z,29.10
2023-05-15T10:13:08.450Z,29.52
2023-05-15T10:15:35.434Z,26.65
2023-05-15T10:18:04.814Z,27.45
2023-05-15T10:20:33.031Z,26.42
2023-05-15T10:23:03.110Z,24.83
2023-05-15T10:25:53.342Z,25.98
2023-05-15T10:28:20.401Z,24.77
2023-05-15T10:30:48.062Z,25.17
2023-05-15T10:33:16.021Z,24.27
2023-05-15T10:35:43.248Z,20.55
2023-05-15T10:38:11.681Z,20.45
2023-05-15T10:40:42.063Z,20.48
2023-05-15T10:43:11.540Z,19.45
2023-05-15T10:45:39.041Z,20.70
2023-05-15T10:48:07.848Z,22.25
2023-05-15T10:50:37.018Z,23.15
2023-05-15T10:53:04.066Z,25.15
2023-05-15T10:55:31.054Z,24.40
2023-05-15T10:57:57.710Z,26.33
2023-05-15T11:00:27.022Z,27.58
2023-05-15T11:02:56.581Z,27.27
2023-05-15T11:05:24.546Z,28.38
2023-05-15T11:08:16.140Z,27.08
2023-05-15T11:10:42.892Z,29.20
2023-05-15T11:13:09.539Z,32.05
2023-05-15T11:15:43.830Z,33.17
2023-05-15T11:18:10.827Z,33.08
2023-05-15T11:20:42.443Z,37.55
2023-05-15T11:23:09.569Z,39.40
2023-05-15T11:25:37.152Z,37.72
2023-05-15T11:28:04.863Z,38.15
2023-05-15T11:30:36.768Z,35.78
2023-05-15T11:33:11.269Z,36.28
2023-05-15T11:35:43.691Z,37.50
2023-05-15T11:38:10.333Z,36.67
2023-05-15T11:40:52.567Z,37.35
2023-05-15T11:43:30.047Z,39.13
2023-05-15T11:46:08.449Z,37.78
2023-05-15T11:48:37.429Z,37.47
2023-05-15T11:51:05.763Z,35.70
2023-05-15T11:53:33.449Z,38.38
2023-05-15T11:56:00.206Z,36.85
2023-05-15T11:58:27.134Z,37.17
2023-05-15T12:00:54.121Z,36.20
2023-05-15T12:03:26.478Z,38.28
2023-05-15T12:05:59.723Z,36.30
2023-05-15T12:08:32.460Z,37.22
2023-05-15T12:11:00.568Z,36.47
2023-05-15T12:13:27.861Z,35.95
2023-05-15T12:15:55.911Z,36.95
2023-05-15T12:18:23.070Z,36.25
2023-05-15T12:20:52.714Z,37.60
2023-05-15T12:23:22.104Z,38.65
2023-05-15T12:25:50.964Z,41.45
2023-05-15T12:28:17.908Z,41.63
2023-05-15T12:30:46.074Z,40.05
2023-05-15T12:33:13.398Z,39.85
2023-05-15T12:35:45.149Z,39.95
2023-05-15T12:38:16.465Z,41.08
2023-05-15T12:40:44.867Z,40.72
2023-05-15T12:43:11.418Z,41.60
2023-05-15T12:45:39.644Z,41.65
2023-05-15T12:48:07.985Z,41.08
2023-05-15T12:50:35.905Z,41.50
2023-05-15T12:53:04.686Z,42.60
2023-05-15T12:55:32.560Z,41.63
2023-05-15T12:58:02.206Z,41.17
2023-05-15T13:00:29.700Z,42.85
2023-05-15T13:02:57.417Z,43.17
2023-05-15T13:05:28.427Z,42.80
2023-05-15T13:08:01.248Z,42.45
2023-05-15T13:10:28.177Z,41.15
2023-05-15T13:12:56.596Z,40.60
2023-05-15T13:15:37.886Z,37.70
2023-05-15T13:18:06.880Z,38.17
2023-05-15T13:21:00.025Z,37.65
2023-05-15T13:23:26.708Z,37.93
2023-05-15T13:25:53.249Z,37.40
2023-05-15T13:28:19.821Z,40.17
2023-05-15T13:30:46.386Z,38.05
2023-05-15T13:33:13.180Z,39.58
2023-05-15T13:35:41.284Z,38.63
2023-05-15T13:38:11.168Z,38.67
2023-05-15T13:40:38.767Z,38.88
2023-05-15T13:43:08.232Z,35.22
2023-05-15T13:45:35.821Z,32.08
2023-05-15T13:48:02.596Z,28.65
2023-05-15T13:50:29.212Z,20.80
2023-05-15T13:52:56.086Z,17.70
2023-05-15T13:55:23.264Z,13.55
2023-05-15T13:57:50.283Z,12.75
2023-05-15T14:00:18.617Z,13.65
2023-05-15T14:02:45.412Z,13.38
2023-05-15T14:05:14.550Z,13.93
2023-05-15T14:07:42.233Z,12.52
2023-05-15T14:10:09.756Z,14.13
2023-05-15T14:12:37.616Z,13.57
2023-05-15T14:15:04.699Z,13.45
2023-05-15T14:17:31.601Z,11.82
2023-05-15T14:19:58.227Z,11.43
2023-05-15T14:22:25.198Z,12.02
2023-05-15T14:24:55.142Z,10.85
2023-05-15T14:27:21.836Z,11.52
2023-05-15T14:29:49.349Z,9.90
2023-05-15T14:32:17.039Z,10.23
2023-05-15T14:34:44.039Z,9.93
2023-05-15T14:37:11.014Z,8.50
2023-05-15T14:39:37.752Z,9.02
2023-05-15T14:42:05.030Z,8.73
2023-05-15T14:44:31.834Z,6.78
2023-05-15T14:47:06.519Z,7.43
2023-05-15T14:49:33.291Z,6.18
2023-05-15T14:51:59.853Z,7.80
2023-05-15T14:54:26.425Z,5.80
2023-05-15T14:56:54.379Z,6.50
2023-05-15T14:59:21.734Z,5.65
2023-05-15T15:01:48.450Z,6.20
2023-05-15T15:04:15.139Z,5.22
2023-05-15T15:06:41.810Z,4.70
2023-05-15T15:09:08.357Z,5.75
2023-05-15T15:11:34.919Z,4.90
2023-05-15T15:14:02.270Z,5.50
2023-05-15T15:16:28.993Z,5.15
2023-05-15T15:18:55.769Z,4.50
2023-05-15T15:21:22.397Z,4.53
2023-05-15T15:23:49.044Z,4.72
2023-05-15T15:26:15.818Z,5.03
2023-05-15T15:28:42.510Z,4.90
2023-05-15T15:31:09.997Z,5.13
2023-05-15T15:33:36.573Z,5.75
2023-05-15T15:36:03.354Z,5.90
2023-05-15T15:38:29.882Z,5.80
2023-05-15T15:40:56.449Z,7.25
2023-05-15T15:43:23.015Z,6.55
2023-05-15T15:45:49.594Z,7.13
2023-05-15T15:48:18.784Z,6.95
2023-05-15T15:50:46.410Z,6.25
2023-05-15T15:53:13.032Z,6.75
2023-05-15T15:55:39.682Z,7.45
2023-05-15T15:58:06.259Z,7.43
2023-05-15T16:00:32.976Z,6.82
2023-05-15T16:02:59.773Z,6.97
2023-05-15T16:05:26.497Z,7.57
2023-05-15T16:07:53.097Z,7.38
2023-05-15T16:10:19.809Z,7.35
2023-05-15T16:12:46.443Z,7.97
2023-05-15T16:15:23.349Z,7.28
2023-05-15T16:17:53.527Z,7.28
2023-05-15T16:20:21.169Z,6.80
2023-05-15T16:22:47.822Z,7.05
2023-05-15T16:25:14.423Z,6.35
2023-05-15T16:27:40.969Z,6.40
2023-05-15T16:30:09.384Z,7.18
2023-05-15T16:32:36.306Z,7.65
2023-05-15T16:35:03.537Z,8.18
2023-05-15T16:37:30.118Z,7.60
2023-05-15T16:39:56.757Z,7.68
2023-05-15T16:42:23.461Z,7.70
2023-05-15T16:44:50.063Z,7.80
2023-05-15T16:47:16.670Z,7.18
2023-05-15T16:49:44.683Z,7.60
2023-05-15T16:52:12.349Z,6.32
2023-05-15T16:54:41.587Z,6.35
2023-05-15T16:57:08.174Z,6.53
2023-05-15T16:59:35.049Z,6.57
2023-05-15T17:02:01.796Z,7.72
2023-05-15T17:04:31.471Z,6.28
2023-05-15T17:06:59.469Z,7.07
2023-05-15T17:09:26.358Z,6.40
2023-05-15T17:11:52.992Z,6.05
2023-05-15T17:14:19.745Z,5.57
2023-05-15T17:16:46.418Z,6.07
2023-05-15T17:19:13.369Z,6.40
2023-05-15T17:21:40.143Z,5.50
2023-05-15T17:24:07.312Z,4.88
2023-05-15T17:26:34.101Z,5.60
2023-05-15T17:29:00.991Z,5.22
2023-05-15T17:31:29.569Z,4.45
2023-05-15T17:33:56.629Z,4.07
2023-05-15T17:36:23.432Z,4.80
2023-05-15T17:38:50.496Z,5.20
2023-05-15T17:41:17.361Z,3.90
2023-05-15T17:43:44.151Z,3.95
2023-05-15T17:46:10.923Z,3.58
2023-05-15T17:48:37.530Z,4.28
2023-05-15T17:51:04.458Z,3.63
2023-05-15T17:53:31.133Z,3.83
2023-05-15T17:55:57.974Z,3.95
2023-05-15T17:58:24.901Z,3.58
2023-05-15T18:00:52.216Z,3.92
2023-05-15T18:03:18.939Z,4.20
2023-05-15T18:05:47.125Z,3.70
2023-05-15T18:08:15.701Z,2.85
2023-05-15T18:10:42.429Z,3.25
2023-05-15T18:13:09.072Z,3.00
2023-05-15T18:15:55.444Z,3.15
2023-05-15T18:18:23.039Z,3.45
2023-05-15T18:20:49.858Z,3.28
2023-05-15T18:23:19.716Z,3.28
2023-05-15T18:25:47.189Z,3.85
2023-05-15T18:28:34.743Z,2.97
2023-05-15T18:31:01.423Z,3.63
2023-05-15T18:33:28.715Z,4.40
2023-05-15T18:35:55.693Z,3.90
2023-05-15T18:38:25.387Z,4.65
2023-05-15T18:40:52.273Z,3.15
2023-05-15T18:43:18.855Z,3.30
2023-05-15T18:45:46.044Z,3.95
2023-05-15T18:48:13.404Z,3.35
2023-05-15T18:50:40.121Z,4.10
2023-05-15T18:53:07.371Z,3.88
2023-05-15T18:55:34.165Z,3.63
2023-05-15T18:58:00.999Z,4.00
2023-05-15T19:00:38.067Z,4.03
2023-05-15T19:03:06.024Z,4.63
2023-05-15T19:05:34.385Z,4.13
2023-05-15T19:08:01.444Z,3.75
2023-05-15T19:10:31.007Z,4.13
2023-05-15T19:12:58.294Z,3.38
2023-05-15T19:15:31.781Z,3.42
2023-05-15T19:20:25.441Z,3.20
2023-05-15T19:22:52.407Z,4.53
2023-05-15T19:25:19.502Z,3.20
2023-05-15T19:27:47.039Z,4.53
2023-05-15T19:30:13.690Z,3.38
2023-05-15T19:32:40.465Z,3.38
2023-05-15T19:35:07.345Z,3.28
2023-05-15T19:37:33.861Z,3.58
2023-05-15T19:40:00.541Z,3.72
2023-05-15T19:42:27.217Z,3.20
2023-05-15T19:44:53.902Z,3.20
2023-05-15T19:47:20.749Z,3.30
2023-05-15T19:49:47.416Z,3.15
2023-05-15T19:52:14.114Z,2.70
2023-05-15T19:54:40.759Z,3.10
2023-05-15T19:57:07.506Z,2.88
2023-05-15T19:59:34.143Z,3.53
2023-05-15T20:02:01.791Z,3.92
2023-05-15T20:04:29.386Z,4.55
2023-05-15T20:06:56.017Z,3.15
2023-05-15T20:09:22.651Z,4.78
2023-05-15T20:11:49.346Z,3.20
2023-05-15T20:14:15.959Z,3.67
2023-05-15T20:16:42.703Z,4.00
2023-05-15T20:19:11.013Z,4.28
2023-05-15T20:21:38.915Z,4.63
2023-05-15T20:24:07.048Z,4.25
2023-05-15T20:26:35.957Z,3.65
2023-05-15T20:29:03.732Z,4.55
2023-05-15T20:31:30.544Z,3.90
2023-05-15T20:33:57.281Z,4.35
2023-05-15T20:36:25.687Z,4.10
2023-05-15T20:38:52.829Z,3.50
2023-05-15T20:41:21.476Z,3.92
2023-05-15T20:43:49.447Z,3.92
2023-05-15T20:46:16.051Z,3.97
2023-05-15T20:48:42.737Z,4.85
2023-05-15T20:51:09.296Z,4.03
2023-05-15T20:53:35.857Z,3.45
2023-05-15T20:56:04.406Z,3.65
2023-05-15T20:58:31.230Z,5.25
2023-05-15T21:01:00.959Z,3.33
2023-05-15T21:03:28.760Z,3.50
2023-05-15T21:05:57.006Z,4.60
2023-05-15T21:08:24.303Z,4.43
2023-05-15T21:10:53.103Z,3.58
2023-05-15T21:13:19.775Z,3.50
2023-05-15T21:15:46.622Z,3.65
2023-05-15T21:18:13.278Z,4.43
2023-05-15T21:20:41.631Z,4.22
2023-05-15T21:23:08.302Z,3.50
2023-05-15T21:25:35.057Z,3.88
2023-05-15T21:28:01.647Z,4.00
2023-05-15T21:30:28.496Z,3.67
2023-05-15T21:32:55.389Z,4.25
2023-05-15T21:35:22.128Z,5.43
2023-05-15T21:37:48.691Z,3.67
2023-05-15T21:40:15.712Z,3.45
2023-05-15T21:42:43.151Z,3.78
2023-05-15T21:45:10.921Z,3.63
2023-05-15T21:47:37.594Z,4.07
2023-05-15T21:50:05.972Z,4.78
2023-05-15T21:52:32.722Z,3.20
2023-05-15T21:54:59.342Z,3.95
2023-05-15T21:57:25.944Z,4.35
2023-05-15T21:59:52.573Z,3.72
2023-05-15T22:02:19.200Z,3.22
2023-05-15T22:04:45.723Z,4.25
2023-05-15T22:07:14.918Z,4.70
2023-05-15T22:09:43.051Z,4.43
2023-05-15T22:12:10.177Z,3.90
2023-05-15T22:14:39.623Z,3.70
2023-05-15T22:17:11.060Z,3.80
2023-05-15T22:19:37.819Z,4.13
2023-05-15T22:22:04.954Z,3.50
2023-05-15T22:24:31.670Z,3.83
2023-05-15T22:26:58.272Z,3.58
2023-05-15T22:29:24.833Z,3.53
2023-05-15T22:31:51.502Z,3.95
2023-05-15T22:34:18.223Z,4.13
2023-05-15T22:36:44.936Z,4.20
2023-05-15T22:39:12.323Z,3.22
2023-05-15T22:41:38.928Z,3.60
2023-05-15T22:44:05.530Z,4.80
2023-05-15T22:46:32.206Z,4.43
2023-05-15T22:49:01.611Z,3.65
2023-05-15T22:51:28.647Z,4.80
2023-05-15T22:53:55.243Z,3.60
2023-05-15T22:56:21.874Z,3.58
2023-05-15T22:58:48.419Z,3.33
2023-05-15T23:01:15.125Z,3.78
2023-05-15T23:03:41.890Z,3.50
2023-05-15T23:06:08.477Z,3.65
2023-05-15T23:08:35.091Z,4.68
2023-05-15T23:11:01.687Z,3.88
2023-05-15T23:13:28.306Z,4.22
2023-05-15T23:15:54.914Z,3.67
2023-05-15T23:18:21.675Z,4.40
2023-05-15T23:20:48.418Z,3.55
2023-05-15T23:23:15.195Z,4.32
2023-05-15T23:25:41.737Z,4.30
2023-05-15T23:28:08.348Z,4.78
2023-05-15T23:30:34.958Z,3.53
2023-05-15T23:33:01.667Z,4.88
2023-05-15T23:35:28.256Z,4.28
2023-05-15T23:37:55.275Z,4.07
2023-05-15T23:40:24.261Z,3.65
2023-05-15T23:42:51.019Z,3.58
2023-05-15T23:45:17.608Z,4.50
2023-05-15T23:47:46.550Z,4.93
2023-05-15T23:50:13.234Z,3.67
2023-05-15T23:52:39.859Z,3.75
2023-05-15T23:55:08.131Z,4.20
2023-05-15T23:57:35.123Z,3.95
